Terminal Aerodrome Forecast
Issued by NWS Jacksonville, FL

Home | Current Version | Previous Version | Text Only | Print | Product List | Glossary On
Versions: 1 2 3 4 5 6 7 8 9 10 11 12 13 14 15 16 17 18 19 20 21 22
996
FTUS42 KJAX 181744
TAFGNV
TAF
KGNV 181744Z 1818/1918 20009KT P6SM SCT045
     FM190000 22003KT P6SM FEW250
     FM190800 21006KT P6SM FEW040 SCT250
     FM191200 24009KT P6SM VCSH SCT020 BKN080 PROB30 1913/1916 5SM
      SHRA BR SCT010 BKN020
     FM191700 32012G20KT P6SM SCT050 BKN090=

USA.gov is the U.S. government's official web portal to all federal, state and local government web resources and services.